Time;durP1;ratioP1;P1;durP2;ratioP2;P2;SDS_P1;SDS_P2;PMS_P1;PMS_P2;Temp;Humidity;BMP_temperature;BMP_pressure;BME280_temperature;BME280_humidity;BME280_pressure;Samples;Min_cycle;Max_cycle;Signal;HPM_P1;HPM_P2
2023/08/14 00:00:23;;;;;;;;;;;;;;;18.49;45.79;101127.59;5097970;28;998;-42
2023/08/14 00:02:48;;;;;;;;;;;;;;;18.03;46.14;101134.78;5097884;28;1082;-46
2023/08/14 00:05:14;;;;;;;;;;;;;;;17.93;45.66;101124.59;5097606;28;1902;-44
2023/08/14 00:07:40;;;;;;;;;;;;;;;17.83;45.12;101123.75;5097794;28;1216;-45
2023/08/14 00:10:06;;;;;;;;;;;;;;;17.81;44.91;101118.50;5098266;28;1094;-46
2023/08/14 00:12:31;;;;;;;;;;;;;;;17.76;44.43;101122.06;5098207;28;1098;-46
2023/08/14 00:14:57;;;;;;;;;;;;;;;18.49;45.47;101128.41;5097118;28;1047;-46
2023/08/14 00:17:22;;;;;;;;;;;;;;;18.09;45.89;101125.44;5097533;28;1228;-46
2023/08/14 00:19:48;;;;;;;;;;;;;;;17.95;45.48;101127.91;5098269;28;1094;-45
2023/08/14 00:22:13;;;;;;;;;;;;;;;17.86;44.95;101124.00;5097531;28;1065;-44
2023/08/14 00:24:40;;;;;;;;;;;;;;;17.78;44.97;101125.38;5097427;28;1968;-46
2023/08/14 00:27:05;;;;;;;;;;;;;;;17.81;44.49;101123.16;5097468;28;1081;-43
2023/08/14 00:29:31;;;;;;;;;;;;;;;17.72;44.27;101115.44;5097324;28;1047;-46
2023/08/14 00:31:57;;;;;;;;;;;;;;;17.72;44.13;101114.63;5078490;28;1328;-42
2023/08/14 00:34:22;;;;;;;;;;;;;;;17.74;43.88;101117.94;5097298;28;1022;-47
2023/08/14 00:36:48;;;;;;;;;;;;;;;18.48;45.23;101121.25;5097636;28;1152;-44
2023/08/14 00:39:14;;;;;;;;;;;;;;;17.91;45.96;101103.97;5079391;28;1130;-48
2023/08/14 00:41:39;;;;;;;;;;;;;;;17.90;45.55;101113.28;5097384;28;1074;-47
2023/08/14 00:44:05;;;;;;;;;;;;;;;17.80;45.08;101111.34;5097518;28;1964;-47
2023/08/14 00:46:31;;;;;;;;;;;;;;;17.82;44.71;101105.56;5096965;28;1141;-43
2023/08/14 00:48:56;;;;;;;;;;;;;;;17.72;44.49;101098.13;5079424;28;1302;-48
2023/08/14 00:51:22;;;;;;;;;;;;;;;17.65;44.54;101103.91;5078597;28;1315;-45
2023/08/14 00:53:48;;;;;;;;;;;;;;;17.74;44.16;101102.28;5078970;28;1209;-44
2023/08/14 00:56:14;;;;;;;;;;;;;;;17.58;44.21;101109.66;5097000;28;1098;-47
2023/08/14 00:58:39;;;;;;;;;;;;;;;18.38;45.41;101104.75;5079431;28;1198;-47
2023/08/14 01:01:05;;;;;;;;;;;;;;;17.94;45.62;101106.16;5079085;28;1290;-46
2023/08/14 01:03:31;;;;;;;;;;;;;;;17.82;45.19;101108.31;5078924;28;1897;-46
2023/08/14 01:05:57;;;;;;;;;;;;;;;17.73;44.84;101105.28;5090978;28;1087;-48
2023/08/14 01:08:22;;;;;;;;;;;;;;;17.78;44.79;101108.88;5078948;28;1137;-47
2023/08/14 01:10:48;;;;;;;;;;;;;;;17.74;44.23;101112.44;5062314;28;1150;-47
2023/08/14 01:13:17;;;;;;;;;;;;;;;17.99;44.91;101097.06;5096566;28;1126;-46
2023/08/14 01:15:43;;;;;;;;;;;;;;;18.16;45.94;101105.03;5077707;28;1464;-47
2023/08/14 01:18:09;;;;;;;;;;;;;;;17.94;45.70;101097.91;5078498;28;1018;-47
2023/08/14 01:20:35;;;;;;;;;;;;;;;17.89;45.10;101098.72;5061471;28;1042;-48
2023/08/14 01:23:01;;;;;;;;;;;;;;;17.77;45.11;101089.91;5096960;28;1059;-46
2023/08/14 01:25:31;;;;;;;;;;;;;;;17.73;44.80;101097.88;5096931;28;1898;-48
2023/08/14 01:27:56;;;;;;;;;;;;;;;17.72;44.83;101109.13;5084203;28;1044;-48
2023/08/14 01:30:23;;;;;;;;;;;;;;;17.68;44.49;101103.34;5096415;28;1077;-45
2023/08/14 01:32:51;;;;;;;;;;;;;;;17.67;44.48;101093.47;5096586;28;1106;-44
2023/08/14 01:35:20;;;;;;;;;;;;;;;17.60;44.29;101099.22;5096056;28;1100;-42
2023/08/14 01:38:05;;;;;;;;;;;;;;;17.62;44.11;101101.69;5050039;28;1139;-46
2023/08/14 01:40:37;;;;;;;;;;;;;;;18.47;45.05;101111.34;5096572;28;1117;-47
2023/08/14 01:43:29;;;;;;;;;;;;;;;17.88;46.07;101109.97;5096236;28;885;-47
2023/08/14 01:45:55;;;;;;;;;;;;;;;17.83;45.54;101104.47;5081651;28;1575;-43
2023/08/14 01:48:24;;;;;;;;;;;;;;;17.75;45.32;101108.59;5078321;28;1102;-43
2023/08/14 01:50:50;;;;;;;;;;;;;;;17.75;44.84;101108.59;5095931;28;1133;-48
2023/08/14 01:53:17;;;;;;;;;;;;;;;17.75;44.52;101111.34;5078438;28;1114;-49
2023/08/14 01:55:44;;;;;;;;;;;;;;;17.61;44.38;101102.78;5088214;28;965;-47
2023/08/14 01:58:10;;;;;;;;;;;;;;;17.66;44.48;101094.56;5095991;28;1070;-47
2023/08/14 02:00:36;;;;;;;;;;;;;;;17.54;44.42;101085.75;5078536;28;1379;-47
2023/08/14 02:03:02;;;;;;;;;;;;;;;17.51;44.51;101081.59;5078189;28;1216;-42
2023/08/14 02:05:27;;;;;;;;;;;;;;;18.09;45.09;101081.41;5095742;28;1976;-47
2023/08/14 02:07:53;;;;;;;;;;;;;;;17.99;46.08;101073.13;5095816;28;940;-45
2023/08/14 02:10:19;;;;;;;;;;;;;;;17.86;45.89;101076.41;5096334;28;1241;-45
2023/08/14 02:12:45;;;;;;;;;;;;;;;17.78;45.41;101080.53;5078078;28;1222;-43
2023/08/14 02:15:10;;;;;;;;;;;;;;;17.76;45.18;101086.31;5077943;28;1371;-45
2023/08/14 02:17:36;;;;;;;;;;;;;;;17.67;44.86;101079.72;5077659;28;1094;-45
2023/08/14 02:20:02;;;;;;;;;;;;;;;17.58;44.94;101075.84;5096101;28;876;-44
2023/08/14 02:22:27;;;;;;;;;;;;;;;17.54;44.78;101077.50;5077712;28;2046;-46
2023/08/14 02:24:53;;;;;;;;;;;;;;;17.86;44.95;101082.72;5096324;28;1917;-46
2023/08/14 02:27:18;;;;;;;;;;;;;;;18.19;46.18;101085.22;5096293;28;1106;-46
2023/08/14 02:29:44;;;;;;;;;;;;;;;17.83;46.34;101079.72;5096214;28;1098;-44
2023/08/14 02:32:10;;;;;;;;;;;;;;;17.84;45.77;101084.09;5075906;28;1300;-44
2023/08/14 02:34:46;;;;;;;;;;;;;;;17.74;45.40;101084.91;5077411;28;1078;-46
2023/08/14 02:37:12;;;;;;;;;;;;;;;18.60;46.36;101079.66;5095904;28;1027;-46
2023/08/14 02:39:37;;;;;;;;;;;;;;;18.13;46.79;101092.66;5077898;28;1134;-46
2023/08/14 02:42:03;;;;;;;;;;;;;;;17.91;46.23;101081.97;5077493;28;1143;-47
2023/08/14 02:44:29;;;;;;;;;;;;;;;17.92;45.53;101081.69;5096039;28;1986;-48
2023/08/14 02:46:56;;;;;;;;;;;;;;;17.83;45.44;101088.78;5096278;28;1098;-44
2023/08/14 02:49:22;;;;;;;;;;;;;;;17.76;45.20;101080.00;5095208;28;1122;-42
2023/08/14 02:51:47;;;;;;;;;;;;;;;17.81;44.84;101087.41;5095626;28;1201;-47
2023/08/14 02:54:13;;;;;;;;;;;;;;;17.73;44.79;101073.09;5095959;28;1178;-47
2023/08/14 02:56:39;;;;;;;;;;;;;;;17.71;44.70;101074.47;5098846;28;1057;-45
2023/08/14 02:59:04;;;;;;;;;;;;;;;17.69;44.84;101068.44;5099404;28;1072;-49
2023/08/14 03:01:30;;;;;;;;;;;;;;;17.60;44.81;101068.16;5099181;28;1089;-46
2023/08/14 03:03:55;;;;;;;;;;;;;;;17.58;44.68;101073.09;5099846;28;1963;-47
2023/08/14 03:06:21;;;;;;;;;;;;;;;18.53;46.17;101076.38;5097882;28;1443;-42
2023/08/14 03:08:47;;;;;;;;;;;;;;;17.98;46.44;101077.00;5089305;28;1039;-48
2023/08/14 03:11:13;;;;;;;;;;;;;;;17.93;45.95;101074.25;5080486;28;1282;-46
2023/08/14 03:13:39;;;;;;;;;;;;;;;17.85;45.85;101069.25;5099337;28;1120;-46
2023/08/14 03:16:04;;;;;;;;;;;;;;;17.76;45.45;101080.81;5080431;28;1153;-49
2023/08/14 03:18:30;;;;;;;;;;;;;;;17.73;45.10;101075.84;5078999;28;1228;-45
2023/08/14 03:20:56;;;;;;;;;;;;;;;17.79;45.04;101076.69;5069292;28;1323;-44
2023/08/14 03:23:21;;;;;;;;;;;;;;;18.27;45.58;101076.41;5098998;28;1882;-46
2023/08/14 03:25:47;;;;;;;;;;;;;;;18.05;46.80;101083.06;5099145;28;1023;-47
2023/08/14 03:28:12;;;;;;;;;;;;;;;17.90;46.17;101081.09;5080472;28;1094;-47
2023/08/14 03:30:41;;;;;;;;;;;;;;;17.83;46.14;101079.72;5097824;28;2553;-46
2023/08/14 03:33:07;;;;;;;;;;;;;;;17.83;45.70;101082.47;5077929;28;2074;-42
2023/08/14 03:35:33;;;;;;;;;;;;;;;17.74;45.65;101077.50;5079975;28;2125;-43
2023/08/14 03:37:58;;;;;;;;;;;;;;;17.74;45.51;101076.66;5063287;28;2336;-41
2023/08/14 03:40:24;;;;;;;;;;;;;;;17.77;45.04;101079.72;5097875;28;2077;-46
2023/08/14 03:42:50;;;;;;;;;;;;;;;17.66;44.99;101082.75;5097743;28;2045;-49
2023/08/14 03:45:15;;;;;;;;;;;;;;;17.66;44.96;101089.06;5079931;28;2378;-46
2023/08/14 03:47:41;;;;;;;;;;;;;;;17.54;44.97;101075.56;5098075;28;1070;-44
2023/08/14 03:50:06;;;;;;;;;;;;;;;17.58;44.83;101081.34;5098324;28;1003;-47
2023/08/14 03:52:32;;;;;;;;;;;;;;;17.59;44.88;101083.81;5097962;28;1156;-49
2023/08/14 03:54:58;;;;;;;;;;;;;;;17.56;45.00;101098.13;5097573;28;1102;-45
2023/08/14 03:57:23;;;;;;;;;;;;;;;17.54;44.96;101089.31;5079184;28;1514;-40
2023/08/14 03:59:50;;;;;;;;;;;;;;;17.51;45.07;101095.34;5079555;28;1457;-44
2023/08/14 04:02:16;;;;;;;;;;;;;;;17.54;44.78;101092.06;5079759;28;1106;-45
2023/08/14 04:04:41;;;;;;;;;;;;;;;17.55;44.55;101093.72;5097878;28;1983;-48
2023/08/14 04:07:11;;;;;;;;;;;;;;;17.47;44.83;101093.44;5078319;28;1070;-46
2023/08/14 04:09:36;;;;;;;;;;;;;;;17.47;44.71;101096.19;5079863;28;1046;-45
2023/08/14 04:12:02;;;;;;;;;;;;;;;17.43;45.06;101088.47;5097431;28;1066;-48
2023/08/14 04:14:28;;;;;;;;;;;;;;;17.35;44.81;101093.66;5079263;28;1214;-47
2023/08/14 04:16:54;;;;;;;;;;;;;;;17.49;44.84;101099.47;5087641;28;2518;-47
2023/08/14 04:19:20;;;;;;;;;;;;;;;17.50;45.56;101096.47;5097408;28;1125;-47
2023/08/14 04:21:45;;;;;;;;;;;;;;;17.62;47.16;101094.25;5079467;28;1095;-46
2023/08/14 04:24:11;;;;;;;;;;;;;;;17.53;46.72;101103.31;5097360;28;1901;-47
2023/08/14 04:26:36;;;;;;;;;;;;;;;17.53;46.21;101098.66;5097249;28;1014;-44
2023/08/14 04:29:06;;;;;;;;;;;;;;;17.48;45.85;101095.91;5079275;28;1221;-46
2023/08/14 04:31:35;;;;;;;;;;;;;;;17.44;45.78;101095.59;5096906;28;1023;-48
2023/08/14 04:34:01;;;;;;;;;;;;;;;17.53;45.09;101106.06;5078623;28;1095;-46
2023/08/14 04:36:28;;;;;;;;;;;;;;;17.39;45.57;101101.13;5078926;28;1244;-47
2023/08/14 04:38:54;;;;;;;;;;;;;;;17.51;45.22;101103.59;5079025;28;1310;-46
2023/08/14 04:41:19;;;;;;;;;;;;;;;17.51;45.24;101108.28;5078920;28;1254;-48
2023/08/14 04:43:45;;;;;;;;;;;;;;;17.40;45.29;101108.28;5078564;28;1909;-43
2023/08/14 04:46:11;;;;;;;;;;;;;;;18.06;45.01;101101.22;5077101;28;2653;-47
2023/08/14 04:48:37;;;;;;;;;;;;;;;18.54;44.63;101102.81;5078409;28;1158;-47
2023/08/14 04:51:04;;;;;;;;;;;;;;;18.24;45.72;101110.84;5096816;28;1053;-46
2023/08/14 04:53:30;;;;;;;;;;;;;;;18.17;46.33;101115.78;5096899;28;1016;-45
2023/08/14 04:55:55;;;;;;;;;;;;;;;18.07;46.67;101102.84;5078254;28;1299;-46
2023/08/14 04:58:21;;;;;;;;;;;;;;;17.97;47.49;101118.56;5078453;28;1202;-44
2023/08/14 05:00:47;;;;;;;;;;;;;;;17.89;47.86;101125.38;5096956;28;1050;-47
2023/08/14 05:03:14;;;;;;;;;;;;;;;17.87;48.22;101130.34;5078654;28;1256;-42
2023/08/14 05:05:40;;;;;;;;;;;;;;;17.77;48.66;101115.47;5078927;28;1918;-43
2023/08/14 05:08:05;;;;;;;;;;;;;;;17.73;48.91;101133.63;5078504;28;1206;-46
2023/08/14 05:10:34;;;;;;;;;;;;;;;17.75;49.09;101131.44;5079057;28;1575;-43
2023/08/14 05:12:59;;;;;;;;;;;;;;;17.70;49.40;101125.91;5096895;28;1007;-43
2023/08/14 05:15:25;;;;;;;;;;;;;;;17.65;49.96;101131.41;5097075;28;1062;-46
2023/08/14 05:17:51;;;;;;;;;;;;;;;17.62;50.16;101126.44;5078062;28;1309;-47
2023/08/14 05:20:17;;;;;;;;;;;;;;;17.55;50.55;101125.88;5096607;28;1215;-49
2023/08/14 05:22:43;;;;;;;;;;;;;;;17.58;50.38;101130.84;5078613;28;1102;-47
2023/08/14 05:25:10;;;;;;;;;;;;;;;17.53;50.91;101130.81;5077990;28;1980;-43
2023/08/14 05:27:38;;;;;;;;;;;;;;;17.58;50.88;101128.09;5096702;28;1137;-48
2023/08/14 05:30:05;;;;;;;;;;;;;;;17.53;51.03;101128.06;5096534;28;1081;-45
2023/08/14 05:32:30;;;;;;;;;;;;;;;17.49;51.27;101133.31;5096319;28;896;-46
2023/08/14 05:34:56;;;;;;;;;;;;;;;17.47;51.29;101129.16;5095966;28;1014;-49
2023/08/14 05:37:21;;;;;;;;;;;;;;;17.49;51.57;101130.56;5096922;28;1106;-45
2023/08/14 05:39:47;;;;;;;;;;;;;;;17.44;51.61;101125.03;5095964;28;1102;-45
2023/08/14 05:42:12;;;;;;;;;;;;;;;17.46;51.73;101128.34;5096608;28;1043;-47
2023/08/14 05:44:38;;;;;;;;;;;;;;;17.41;52.16;101140.13;5095740;28;1917;-49
2023/08/14 05:47:03;;;;;;;;;;;;;;;17.42;52.41;101139.06;5096329;28;1130;-47
2023/08/14 05:49:29;;;;;;;;;;;;;;;17.39;52.55;101134.09;5096132;28;1408;-50
2023/08/14 05:51:55;;;;;;;;;;;;;;;17.39;52.50;101130.50;5096187;28;1196;-51
2023/08/14 05:54:20;;;;;;;;;;;;;;;17.40;52.83;101140.41;5095712;28;1018;-48
2023/08/14 05:56:46;;;;;;;;;;;;;;;17.37;52.84;101139.03;5095716;28;867;-48
2023/08/14 05:59:11;;;;;;;;;;;;;;;17.30;52.89;101130.22;5096176;28;1113;-47
2023/08/14 06:01:37;;;;;;;;;;;;;;;17.28;53.18;101132.41;5096119;28;1034;-47
2023/08/14 06:04:02;;;;;;;;;;;;;;;17.31;52.90;101131.06;5096383;28;1954;-49
2023/08/14 06:06:28;;;;;;;;;;;;;;;17.27;53.29;101126.06;5095684;28;1030;-48
2023/08/14 06:08:54;;;;;;;;;;;;;;;17.31;53.17;101120.88;5085430;28;1080;-47
2023/08/14 06:11:19;;;;;;;;;;;;;;;17.30;53.29;101132.97;5093817;28;1201;-49
2023/08/14 06:13:45;;;;;;;;;;;;;;;17.22;53.54;101122.47;5096843;28;1150;-46
2023/08/14 06:16:11;;;;;;;;;;;;;;;17.28;53.26;101126.91;5095587;28;1066;-47
2023/08/14 06:18:36;;;;;;;;;;;;;;;17.24;53.54;101125.81;5096430;28;1149;-48
2023/08/14 06:21:02;;;;;;;;;;;;;;;17.26;53.81;101140.09;5095306;28;1018;-46
2023/08/14 06:23:27;;;;;;;;;;;;;;;17.22;53.83;101131.56;5096034;28;1979;-47
2023/08/14 06:25:53;;;;;;;;;;;;;;;17.29;53.72;101145.03;5095481;28;1038;-46
2023/08/14 06:28:18;;;;;;;;;;;;;;;17.29;53.82;101147.78;5096170;28;1038;-49
2023/08/14 06:30:44;;;;;;;;;;;;;;;17.24;53.78;101153.28;5098230;28;1134;-45
2023/08/14 06:33:10;;;;;;;;;;;;;;;17.26;53.96;101154.69;5099601;28;861;-48
2023/08/14 06:35:35;;;;;;;;;;;;;;;17.19;54.10;101156.81;5099395;28;1175;-47
2023/08/14 06:38:01;;;;;;;;;;;;;;;17.23;53.77;101157.13;5099803;28;1175;-48
2023/08/14 06:40:26;;;;;;;;;;;;;;;17.21;53.97;101157.41;5100388;28;1510;-47
2023/08/14 06:42:52;;;;;;;;;;;;;;;17.25;54.02;101154.91;5099908;28;1193;-47
2023/08/14 06:45:17;;;;;;;;;;;;;;;17.22;54.20;101166.47;5099442;28;1917;-46
2023/08/14 06:47:44;;;;;;;;;;;;;;;17.21;54.09;101156.56;5099582;28;1165;-48
2023/08/14 06:50:10;;;;;;;;;;;;;;;17.25;54.09;101163.16;5097854;28;1337;-48
2023/08/14 06:52:36;;;;;;;;;;;;;;;17.19;54.22;101153.25;5099376;28;1103;-45
2023/08/14 06:55:01;;;;;;;;;;;;;;;17.24;54.35;101159.59;5099219;28;1018;-48
2023/08/14 06:57:27;;;;;;;;;;;;;;;17.28;54.18;101157.16;5098934;28;871;-50
2023/08/14 06:59:54;;;;;;;;;;;;;;;17.22;54.32;101160.97;5098691;28;1101;-49
2023/08/14 07:02:19;;;;;;;;;;;;;;;17.21;54.37;101162.88;5099416;28;1109;-48
2023/08/14 07:04:45;;;;;;;;;;;;;;;17.22;54.49;101167.31;5099233;28;1913;-48
2023/08/14 07:07:10;;;;;;;;;;;;;;;17.23;54.39;101168.13;5099015;28;1062;-48
2023/08/14 07:09:36;;;;;;;;;;;;;;;17.27;54.39;101158.25;5098211;28;1497;-48
2023/08/14 07:12:02;;;;;;;;;;;;;;;17.18;54.57;101160.69;5098887;28;1043;-50
2023/08/14 07:14:28;;;;;;;;;;;;;;;17.18;54.79;101157.09;5098754;28;1161;-50
2023/08/14 07:16:53;;;;;;;;;;;;;;;17.24;54.49;101153.28;5098434;28;1134;-49
2023/08/14 07:19:19;;;;;;;;;;;;;;;17.20;54.65;101168.66;5098641;28;1149;-46
2023/08/14 07:21:45;;;;;;;;;;;;;;;17.23;54.70;101157.13;5098695;28;946;-50
2023/08/14 07:24:12;;;;;;;;;;;;;;;17.22;54.65;101155.47;5098085;28;1901;-49
2023/08/14 07:26:38;;;;;;;;;;;;;;;17.22;54.87;101164.56;5098933;28;1129;-48
2023/08/14 07:29:04;;;;;;;;;;;;;;;17.29;54.75;101150.53;5098170;28;1086;-49
2023/08/14 07:31:29;;;;;;;;;;;;;;;17.22;54.72;101160.97;5098237;28;1161;-47
2023/08/14 07:33:55;;;;;;;;;;;;;;;17.22;54.91;101149.97;5098421;28;1188;-48
2023/08/14 07:36:20;;;;;;;;;;;;;;;17.24;54.67;101145.03;5098680;28;1114;-49
2023/08/14 07:38:46;;;;;;;;;;;;;;;17.24;54.82;101147.78;5080230;28;1130;-50
2023/08/14 07:41:11;;;;;;;;;;;;;;;17.27;54.81;101155.50;5098003;28;1157;-46
2023/08/14 07:43:37;;;;;;;;;;;;;;;17.24;54.70;101164.28;5097893;28;1979;-45
2023/08/14 07:46:02;;;;;;;;;;;;;;;17.22;54.67;101155.47;5098022;28;884;-47
2023/08/14 07:48:28;;;;;;;;;;;;;;;17.20;55.03;101163.97;5097364;28;1100;-47
2023/08/14 07:50:54;;;;;;;;;;;;;;;17.23;54.80;101162.63;5097755;28;1058;-48
2023/08/14 07:53:19;;;;;;;;;;;;;;;17.21;54.91;101154.66;5079508;28;1061;-47
2023/08/14 07:55:45;;;;;;;;;;;;;;;17.21;54.84;101146.41;5098327;28;1266;-48
2023/08/14 07:58:10;;;;;;;;;;;;;;;17.27;54.57;101155.50;5097323;28;1097;-49
2023/08/14 08:00:36;;;;;;;;;;;;;;;17.25;54.67;101152.16;5097458;28;1038;-48
2023/08/14 08:03:02;;;;;;;;;;;;;;;17.29;54.78;101156.03;5097560;28;1018;-48
2023/08/14 08:05:27;;;;;;;;;;;;;;;17.23;54.80;101157.13;5097408;28;1984;-49
2023/08/14 08:07:53;;;;;;;;;;;;;;;17.28;54.67;101163.47;5097234;28;1319;-50
2023/08/14 08:10:18;;;;;;;;;;;;;;;17.23;54.82;101163.44;5095738;28;987;-46
2023/08/14 08:12:44;;;;;;;;;;;;;;;17.23;55.04;101168.94;5097120;28;1185;-50
2023/08/14 08:15:10;;;;;;;;;;;;;;;17.21;54.88;101159.31;5097535;28;1372;-46
2023/08/14 08:17:35;;;;;;;;;;;;;;;17.23;54.81;101159.88;5096213;28;1276;-52
2023/08/14 08:20:01;;;;;;;;;;;;;;;17.24;55.02;101173.34;5077478;28;1019;-51
2023/08/14 08:22:26;;;;;;;;;;;;;;;17.24;55.03;101165.09;5090812;28;987;-50
2023/08/14 08:24:52;;;;;;;;;;;;;;;17.21;55.12;101171.13;5085410;28;1987;-48
2023/08/14 08:27:17;;;;;;;;;;;;;;;17.22;55.04;101160.97;5097187;28;1075;-49
2023/08/14 08:29:43;;;;;;;;;;;;;;;17.22;54.92;101172.78;5088952;28;1170;-51
2023/08/14 08:32:09;;;;;;;;;;;;;;;17.28;54.88;101181.88;5090908;28;1075;-49
2023/08/14 08:34:35;;;;;;;;;;;;;;;17.26;55.03;101168.41;5096601;28;911;-48
2023/08/14 08:37:00;;;;;;;;;;;;;;;17.29;55.01;101172.53;5096959;28;1027;-47
2023/08/14 08:39:26;;;;;;;;;;;;;;;17.21;54.99;101173.06;5097346;28;1030;-52
2023/08/14 08:41:51;;;;;;;;;;;;;;;17.29;55.18;101178.03;5096613;28;1120;-51
2023/08/14 08:44:24;;;;;;;;;;;;;;;17.23;54.95;101179.09;5096888;28;1977;-51
2023/08/14 08:47:08;;;;;;;;;;;;;;;17.22;55.31;101178.28;5096402;28;916;-50
2023/08/14 08:49:37;;;;;;;;;;;;;;;17.30;54.94;101179.69;5079637;28;1075;-48
2023/08/14 08:52:03;;;;;;;;;;;;;;;17.24;55.22;101186.25;5077408;28;1230;-48
2023/08/14 08:54:28;;;;;;;;;;;;;;;17.28;55.07;101177.22;5097402;28;1085;-51
2023/08/14 08:56:55;;;;;;;;;;;;;;;17.31;55.08;101164.03;5078334;28;1422;-53
2023/08/14 08:59:21;;;;;;;;;;;;;;;17.28;54.87;101168.16;5088575;28;1150;-51
2023/08/14 09:01:47;;;;;;;;;;;;;;;17.29;54.99;101169.78;5095925;28;1069;-49
2023/08/14 09:04:12;;;;;;;;;;;;;;;17.28;55.01;101171.72;5096410;28;1980;-46
2023/08/14 09:06:38;;;;;;;;;;;;;;;17.28;54.91;101171.72;5092809;28;1140;-52
2023/08/14 09:09:03;;;;;;;;;;;;;;;17.29;55.18;101178.03;5069849;28;896;-51
2023/08/14 09:11:29;;;;;;;;;;;;;;;17.29;54.82;101186.25;5095173;28;2855;-51
2023/08/14 09:13:55;;;;;;;;;;;;;;;17.26;55.21;101173.06;5096235;28;1062;-51
2023/08/14 09:16:20;;;;;;;;;;;;;;;17.29;54.83;101164.28;5096019;28;1065;-53
2023/08/14 09:18:46;;;;;;;;;;;;;;;17.22;55.07;101177.44;5096220;28;1085;-51
2023/08/14 09:21:12;;;;;;;;;;;;;;;17.22;55.10;101167.31;5095598;28;1162;-52
2023/08/14 09:23:38;;;;;;;;;;;;;;;17.28;55.04;101168.16;5078415;28;1967;-49
2023/08/14 09:26:03;;;;;;;;;;;;;;;17.27;55.05;101167.31;5096170;28;1133;-48
2023/08/14 09:28:29;;;;;;;;;;;;;;;17.34;54.79;101161.56;5077993;28;1126;-48
2023/08/14 09:31:04;;;;;;;;;;;;;;;17.28;55.21;101148.91;5095946;28;1014;-49
2023/08/14 09:33:29;;;;;;;;;;;;;;;17.33;55.00;101165.41;5077942;28;1014;-49
2023/08/14 09:35:55;;;;;;;;;;;;;;;17.32;55.16;101150.03;5095920;28;1081;-48
2023/08/14 09:38:21;;;;;;;;;;;;;;;17.31;55.04;101156.59;5077698;28;1388;-52
2023/08/14 09:40:47;;;;;;;;;;;;;;;17.27;55.37;101161.81;5088281;28;1852;-48
2023/08/14 09:43:13;;;;;;;;;;;;;;;17.26;55.27;101162.06;5095660;28;1125;-49
2023/08/14 09:45:38;;;;;;;;;;;;;;;17.27;55.13;101158.25;5095803;28;1914;-46
2023/08/14 09:48:04;;;;;;;;;;;;;;;17.33;55.17;101153.59;5096489;28;1225;-50
2023/08/14 09:50:30;;;;;;;;;;;;;;;17.36;55.23;101162.13;5095820;28;1046;-46
2023/08/14 09:52:57;;;;;;;;;;;;;;;17.29;55.50;101167.03;5095530;28;1499;-47
2023/08/14 09:55:22;;;;;;;;;;;;;;;17.31;55.36;101164.03;5095770;28;1086;-49
2023/08/14 09:57:48;;;;;;;;;;;;;;;17.31;55.55;101164.84;5095222;28;1173;-48
2023/08/14 10:00:13;;;;;;;;;;;;;;;17.35;55.41;101160.47;5096001;28;1152;-44
2023/08/14 10:02:39;;;;;;;;;;;;;;;17.30;55.80;101152.19;5095718;28;1046;-45
2023/08/14 10:05:05;;;;;;;;;;;;;;;17.33;55.51;101157.16;5099396;28;1980;-48
2023/08/14 10:07:30;;;;;;;;;;;;;;;17.37;55.70;101157.44;5069984;28;1213;-47
2023/08/14 10:09:56;;;;;;;;;;;;;;;17.35;55.64;101154.13;5093489;28;1077;-46
2023/08/14 10:12:23;;;;;;;;;;;;;;;17.35;55.57;101160.47;5092326;28;1065;-50
2023/08/14 10:15:04;;;;;;;;;;;;;;;17.38;55.56;101146.19;5099661;28;1176;-47
2023/08/14 10:17:31;;;;;;;;;;;;;;;17.37;55.86;101147.28;5099803;28;1169;-46
2023/08/14 10:19:56;;;;;;;;;;;;;;;17.36;55.66;101153.03;5099597;28;1038;-50
2023/08/14 10:22:22;;;;;;;;;;;;;;;17.39;55.89;101156.09;5099492;28;1146;-46
2023/08/14 10:24:48;;;;;;;;;;;;;;;17.39;55.87;101155.25;5081669;28;2061;-49
2023/08/14 10:27:13;;;;;;;;;;;;;;;17.42;55.62;101149.22;5081535;28;1150;-50
2023/08/14 10:29:39;;;;;;;;;;;;;;;17.39;55.84;101145.09;5081511;28;1050;-49
2023/08/14 10:32:04;;;;;;;;;;;;;;;17.40;55.97;101156.91;5099965;28;1281;-47
2023/08/14 10:34:30;;;;;;;;;;;;;;;17.40;55.83;101148.66;5099364;28;1230;-49
2023/08/14 10:36:56;;;;;;;;;;;;;;;17.40;55.55;101157.75;5099171;28;1035;-51
2023/08/14 10:39:31;;;;;;;;;;;;;;;17.40;55.61;101152.25;5099329;28;1224;-48
2023/08/14 10:41:58;;;;;;;;;;;;;;;17.44;55.44;101156.09;5099171;28;1002;-45
2023/08/14 10:44:23;;;;;;;;;;;;;;;17.48;55.62;101155.56;5099557;28;1905;-51
2023/08/14 10:46:49;;;;;;;;;;;;;;;17.39;55.76;101150.59;5080223;28;1192;-48
2023/08/14 10:49:14;;;;;;;;;;;;;;;17.40;55.95;101140.41;5099265;28;1038;-49
2023/08/14 10:51:40;;;;;;;;;;;;;;;17.40;55.75;101146.75;5098923;28;1133;-50
2023/08/14 10:54:09;;;;;;;;;;;;;;;17.45;55.56;101129.44;5099375;28;1086;-51
2023/08/14 10:56:42;;;;;;;;;;;;;;;17.49;55.40;101132.44;5099015;28;1116;-49
2023/08/14 10:59:18;;;;;;;;;;;;;;;17.49;55.81;101132.44;5098520;28;1185;-47
2023/08/14 11:01:43;;;;;;;;;;;;;;;17.44;55.86;101145.09;5098838;28;1039;-50
2023/08/14 11:04:09;;;;;;;;;;;;;;;17.47;55.68;101140.16;5080616;28;1906;-48
2023/08/14 11:06:53;;;;;;;;;;;;;;;17.48;55.76;101133.56;5098847;28;999;-49
2023/08/14 11:09:19;;;;;;;;;;;;;;;17.51;55.63;101146.78;5099199;28;1121;-48
2023/08/14 11:11:47;;;;;;;;;;;;;;;17.54;55.67;101135.22;5080422;28;1255;-49
2023/08/14 11:14:12;;;;;;;;;;;;;;;17.51;55.83;101124.78;5098954;28;1233;-46
2023/08/14 11:16:38;;;;;;;;;;;;;;;17.51;56.02;101135.78;5098254;28;1122;-48
2023/08/14 11:19:04;;;;;;;;;;;;;;;17.50;55.88;101142.38;5080058;28;1173;-49
2023/08/14 11:21:34;;;;;;;;;;;;;;;17.55;55.77;101136.88;5098396;28;1050;-47
2023/08/14 11:23:59;;;;;;;;;;;;;;;17.52;55.92;101137.44;5097044;28;1972;-49
2023/08/14 11:26:28;;;;;;;;;;;;;;;17.54;55.94;101132.47;5098159;28;1082;-45
2023/08/14 11:28:54;;;;;;;;;;;;;;;17.49;56.03;101130.56;5098351;28;1042;-48
2023/08/14 11:31:20;;;;;;;;;;;;;;;17.56;55.78;101130.31;5098551;28;1181;-49
2023/08/14 11:33:45;;;;;;;;;;;;;;;17.57;55.65;101120.94;5098111;28;1043;-45
2023/08/14 11:36:11;;;;;;;;;;;;;;;17.51;56.02;101116.53;5097714;28;894;-48
2023/08/14 11:38:37;;;;;;;;;;;;;;;17.64;55.82;101118.75;5097918;28;1225;-46
2023/08/14 11:41:02;;;;;;;;;;;;;;;17.60;55.97;101117.66;5098350;28;1092;-46
2023/08/14 11:43:28;;;;;;;;;;;;;;;17.56;56.01;101113.81;5098162;28;1236;-46
2023/08/14 11:45:54;;;;;;;;;;;;;;;17.57;56.20;101115.44;5098100;28;1969;-47
2023/08/14 11:48:20;;;;;;;;;;;;;;;17.51;56.02;101111.84;5098127;28;905;-46
2023/08/14 11:50:46;;;;;;;;;;;;;;;17.63;55.86;101117.09;5097896;28;1065;-47
2023/08/14 11:53:12;;;;;;;;;;;;;;;17.58;55.87;101114.34;5098001;28;1103;-50
2023/08/14 11:55:38;;;;;;;;;;;;;;;17.61;55.87;101109.13;5080119;28;1035;-48
2023/08/14 11:58:03;;;;;;;;;;;;;;;17.58;56.08;101115.16;5078912;28;1133;-49
2023/08/14 12:00:29;;;;;;;;;;;;;;;17.64;55.83;101096.75;5079668;28;1447;-47
2023/08/14 12:02:55;;;;;;;;;;;;;;;17.63;55.92;101106.13;5097509;28;1170;-47
2023/08/14 12:05:21;;;;;;;;;;;;;;;17.55;56.18;101112.16;5097723;28;1977;-51
2023/08/14 12:07:46;;;;;;;;;;;;;;;17.65;55.64;101114.09;5097814;28;1161;-48
2023/08/14 12:10:14;;;;;;;;;;;;;;;17.59;55.95;101103.06;5097680;28;1113;-48
2023/08/14 12:12:40;;;;;;;;;;;;;;;17.64;55.79;101118.75;5097443;28;925;-46
2023/08/14 12:15:05;;;;;;;;;;;;;;;17.69;55.74;101116.00;5097713;28;1141;-49
2023/08/14 12:17:31;;;;;;;;;;;;;;;17.60;56.05;101095.66;5097117;28;1067;-51
2023/08/14 12:19:59;;;;;;;;;;;;;;;17.61;55.85;101111.88;5097212;28;1185;-50
2023/08/14 12:22:26;;;;;;;;;;;;;;;17.60;55.86;101112.97;5097691;28;1090;-46
2023/08/14 12:24:51;;;;;;;;;;;;;;;17.68;55.83;101105.28;5097334;28;1905;-48
2023/08/14 12:27:18;;;;;;;;;;;;;;;17.63;55.93;101103.38;5077695;28;1177;-44
2023/08/14 12:29:44;;;;;;;;;;;;;;;17.60;56.22;101095.66;5097670;28;1144;-49
2023/08/14 12:32:09;;;;;;;;;;;;;;;17.63;56.01;101100.59;5097487;28;1059;-49
2023/08/14 12:34:35;;;;;;;;;;;;;;;17.70;55.83;101098.41;5097013;28;1137;-47
2023/08/14 12:37:02;;;;;;;;;;;;;;;17.65;56.11;101090.16;5096993;28;1145;-48
2023/08/14 12:39:28;;;;;;;;;;;;;;;17.61;56.32;101086.28;5096505;28;1042;-47
2023/08/14 12:41:56;;;;;;;;;;;;;;;17.64;55.92;101079.44;5096970;28;1073;-46